Vera, Brazil
Current Conditions -  °F | °C
As of 8:30 PM on Monday 22 Dec 2014 (Local Time) from SBAT Reporting Station
Thunderstorm Thunderstorm  
Wind Chill: 79°   Ceiling: Unl
Heat Index: 82°   Visibility: 6mi
Dew Point: 73°   Wind: 6mph
Humidity: 83%   Direction: 250°WSW
Pressure: 29.85"   Gusts: NA
Location:  12.31°S, 55.32°W
Report Text: SBAT 222330Z 25005KT 9999 VCTS FEW030 FEW040CB SCT100 26/23 Q1011
Loading
Personal Weather Stations






























Interactive Weather Map New forecast layout! Learn more

10-Day Weather Forecast

Advertisements
Track Severe Weather on mobile